sensor_id;sensor_type;location;lat;lon;timestamp;temperature;humidity
3792;DHT22;1911;53.768;11.474;2024-03-08T00:00:40;0.90;99.90
3792;DHT22;1911;53.768;11.474;2024-03-08T00:03:08;0.90;99.90
3792;DHT22;1911;53.768;11.474;2024-03-08T00:05:36;1.20;99.90
3792;DHT22;1911;53.768;11.474;2024-03-08T00:08:04;0.80;99.90
3792;DHT22;1911;53.768;11.474;2024-03-08T00:10:30;0.80;99.90
3792;DHT22;1911;53.768;11.474;2024-03-08T00:12:56;1.10;99.90
3792;DHT22;1911;53.768;11.474;2024-03-08T00:15:23;1.50;99.90
3792;DHT22;1911;53.768;11.474;2024-03-08T00:17:48;0.80;99.90
3792;DHT22;1911;53.768;11.474;2024-03-08T00:20:14;0.80;99.90
3792;DHT22;1911;53.768;11.474;2024-03-08T00:22:40;0.80;99.90
3792;DHT22;1911;53.768;11.474;2024-03-08T00:25:07;0.80;99.90
3792;DHT22;1911;53.768;11.474;2024-03-08T00:27:37;0.80;99.90
3792;DHT22;1911;53.768;11.474;2024-03-08T00:30:04;0.70;99.90
3792;DHT22;1911;53.768;11.474;2024-03-08T00:32:30;0.70;99.90
3792;DHT22;1911;53.768;11.474;2024-03-08T00:34:57;0.80;99.90
3792;DHT22;1911;53.768;11.474;2024-03-08T00:37:23;0.80;99.90
3792;DHT22;1911;53.768;11.474;2024-03-08T00:39:49;0.70;99.90
3792;DHT22;1911;53.768;11.474;2024-03-08T00:42:15;0.70;99.90
3792;DHT22;1911;53.768;11.474;2024-03-08T00:44:41;0.70;99.90
3792;DHT22;1911;53.768;11.474;2024-03-08T00:47:07;0.70;99.90
3792;DHT22;1911;53.768;11.474;2024-03-08T00:49:32;0.70;99.90
3792;DHT22;1911;53.768;11.474;2024-03-08T00:51:58;0.60;99.90
3792;DHT22;1911;53.768;11.474;2024-03-08T00:54:24;0.60;99.90
3792;DHT22;1911;53.768;11.474;2024-03-08T00:56:49;0.70;99.90
3792;DHT22;1911;53.768;11.474;2024-03-08T00:59:15;0.70;99.90
3792;DHT22;1911;53.768;11.474;2024-03-08T01:01:41;0.60;99.90
3792;DHT22;1911;53.768;11.474;2024-03-08T01:04:07;0.60;99.90
3792;DHT22;1911;53.768;11.474;2024-03-08T01:06:33;0.60;99.90
3792;DHT22;1911;53.768;11.474;2024-03-08T01:08:59;0.60;99.90
3792;DHT22;1911;53.768;11.474;2024-03-08T01:11:25;0.60;99.90
3792;DHT22;1911;53.768;11.474;2024-03-08T01:13:50;0.50;99.90
3792;DHT22;1911;53.768;11.474;2024-03-08T01:16:16;0.50;99.90
3792;DHT22;1911;53.768;11.474;2024-03-08T01:18:46;0.50;99.90
3792;DHT22;1911;53.768;11.474;2024-03-08T01:21:12;0.50;99.90
3792;DHT22;1911;53.768;11.474;2024-03-08T01:23:38;0.50;99.90
3792;DHT22;1911;53.768;11.474;2024-03-08T01:26:04;0.50;99.90
3792;DHT22;1911;53.768;11.474;2024-03-08T01:28:30;0.50;99.90
3792;DHT22;1911;53.768;11.474;2024-03-08T01:30:56;0.50;99.90
3792;DHT22;1911;53.768;11.474;2024-03-08T01:33:25;0.40;99.90
3792;DHT22;1911;53.768;11.474;2024-03-08T01:35:54;0.50;99.90
3792;DHT22;1911;53.768;11.474;2024-03-08T01:38:20;0.50;99.90
3792;DHT22;1911;53.768;11.474;2024-03-08T01:40:49;0.60;99.90
3792;DHT22;1911;53.768;11.474;2024-03-08T01:45:45;0.60;99.90
3792;DHT22;1911;53.768;11.474;2024-03-08T01:48:11;0.60;99.90
3792;DHT22;1911;53.768;11.474;2024-03-08T01:50:38;0.60;99.90
3792;DHT22;1911;53.768;11.474;2024-03-08T01:53:05;0.60;99.90
3792;DHT22;1911;53.768;11.474;2024-03-08T01:55:31;0.60;99.90
3792;DHT22;1911;53.768;11.474;2024-03-08T01:57:57;0.60;99.90
3792;DHT22;1911;53.768;11.474;2024-03-08T02:00:39;0.30;99.90
3792;DHT22;1911;53.768;11.474;2024-03-08T02:06:52;0.70;99.90
3792;DHT22;1911;53.768;11.474;2024-03-08T02:09:17;0.60;99.90
3792;DHT22;1911;53.768;11.474;2024-03-08T02:11:43;0.70;99.90
3792;DHT22;1911;53.768;11.474;2024-03-08T02:14:08;0.70;99.90
3792;DHT22;1911;53.768;11.474;2024-03-08T02:16:35;0.70;99.90
3792;DHT22;1911;53.768;11.474;2024-03-08T02:19:00;0.70;99.90
3792;DHT22;1911;53.768;11.474;2024-03-08T02:21:26;0.70;99.90
3792;DHT22;1911;53.768;11.474;2024-03-08T02:23:51;0.70;99.90
3792;DHT22;1911;53.768;11.474;2024-03-08T02:26:17;0.70;99.90
3792;DHT22;1911;53.768;11.474;2024-03-08T02:28:44;0.70;99.90
3792;DHT22;1911;53.768;11.474;2024-03-08T02:31:10;0.70;99.90
3792;DHT22;1911;53.768;11.474;2024-03-08T02:33:36;0.70;99.90
3792;DHT22;1911;53.768;11.474;2024-03-08T02:36:01;0.70;99.90
3792;DHT22;1911;53.768;11.474;2024-03-08T02:38:28;0.80;99.90
3792;DHT22;1911;53.768;11.474;2024-03-08T02:40:54;0.70;99.90
3792;DHT22;1911;53.768;11.474;2024-03-08T02:43:21;0.70;99.90
3792;DHT22;1911;53.768;11.474;2024-03-08T02:45:50;0.70;99.90
3792;DHT22;1911;53.768;11.474;2024-03-08T02:48:16;0.70;99.90
3792;DHT22;1911;53.768;11.474;2024-03-08T02:50:41;0.70;99.90
3792;DHT22;1911;53.768;11.474;2024-03-08T02:53:11;0.70;99.90
3792;DHT22;1911;53.768;11.474;2024-03-08T02:55:37;0.70;99.90
3792;DHT22;1911;53.768;11.474;2024-03-08T02:58:03;0.70;99.90
3792;DHT22;1911;53.768;11.474;2024-03-08T03:00:29;0.60;99.90
3792;DHT22;1911;53.768;11.474;2024-03-08T03:02:56;0.60;99.90
3792;DHT22;1911;53.768;11.474;2024-03-08T03:05:23;0.60;99.90
3792;DHT22;1911;53.768;11.474;2024-03-08T03:07:49;0.60;99.90
3792;DHT22;1911;53.768;11.474;2024-03-08T03:10:18;0.50;99.90
3792;DHT22;1911;53.768;11.474;2024-03-08T03:12:45;0.70;99.90
3792;DHT22;1911;53.768;11.474;2024-03-08T03:15:17;0.70;99.90
3792;DHT22;1911;53.768;11.474;2024-03-08T03:17:47;0.70;99.90
3792;DHT22;1911;53.768;11.474;2024-03-08T03:20:13;0.60;99.90
3792;DHT22;1911;53.768;11.474;2024-03-08T03:22:40;0.60;99.90
3792;DHT22;1911;53.768;11.474;2024-03-08T03:25:07;0.60;99.90
3792;DHT22;1911;53.768;11.474;2024-03-08T03:27:33;0.60;99.90
3792;DHT22;1911;53.768;11.474;2024-03-08T03:29:59;0.60;99.90
3792;DHT22;1911;53.768;11.474;2024-03-08T03:32:44;0.60;99.90
3792;DHT22;1911;53.768;11.474;2024-03-08T03:35:13;0.50;99.90
3792;DHT22;1911;53.768;11.474;2024-03-08T03:37:38;0.50;99.90
3792;DHT22;1911;53.768;11.474;2024-03-08T03:40:06;0.50;99.90
3792;DHT22;1911;53.768;11.474;2024-03-08T03:42:33;0.50;99.90
3792;DHT22;1911;53.768;11.474;2024-03-08T03:44:59;0.40;99.90
3792;DHT22;1911;53.768;11.474;2024-03-08T03:47:25;0.50;99.90
3792;DHT22;1911;53.768;11.474;2024-03-08T03:49:52;0.50;99.90
3792;DHT22;1911;53.768;11.474;2024-03-08T03:52:19;0.50;99.90
3792;DHT22;1911;53.768;11.474;2024-03-08T03:54:45;0.50;99.90
3792;DHT22;1911;53.768;11.474;2024-03-08T03:57:10;0.50;99.90
3792;DHT22;1911;53.768;11.474;2024-03-08T03:59:37;0.50;99.90
3792;DHT22;1911;53.768;11.474;2024-03-08T04:02:03;0.50;99.90
3792;DHT22;1911;53.768;11.474;2024-03-08T04:04:29;0.50;99.90
3792;DHT22;1911;53.768;11.474;2024-03-08T04:06:54;0.40;99.90
3792;DHT22;1911;53.768;11.474;2024-03-08T04:09:20;0.50;99.90
3792;DHT22;1911;53.768;11.474;2024-03-08T04:11:48;0.50;99.90
3792;DHT22;1911;53.768;11.474;2024-03-08T04:14:13;0.40;99.90
3792;DHT22;1911;53.768;11.474;2024-03-08T04:16:39;0.40;99.90
3792;DHT22;1911;53.768;11.474;2024-03-08T04:19:05;0.40;99.90
3792;DHT22;1911;53.768;11.474;2024-03-08T04:21:30;0.30;99.90
3792;DHT22;1911;53.768;11.474;2024-03-08T04:23:56;0.30;99.90
3792;DHT22;1911;53.768;11.474;2024-03-08T04:26:22;0.20;99.90
3792;DHT22;1911;53.768;11.474;2024-03-08T04:28:47;0.20;99.90
3792;DHT22;1911;53.768;11.474;2024-03-08T04:31:13;0.20;99.90
3792;DHT22;1911;53.768;11.474;2024-03-08T04:33:39;0.20;99.90
3792;DHT22;1911;53.768;11.474;2024-03-08T04:36:04;0.30;99.90
3792;DHT22;1911;53.768;11.474;2024-03-08T04:38:30;0.20;99.90
3792;DHT22;1911;53.768;11.474;2024-03-08T04:40:57;0.20;99.90
3792;DHT22;1911;53.768;11.474;2024-03-08T04:43:23;0.10;99.90
3792;DHT22;1911;53.768;11.474;2024-03-08T04:45:52;0.10;99.90
3792;DHT22;1911;53.768;11.474;2024-03-08T04:48:19;0.10;99.90
3792;DHT22;1911;53.768;11.474;2024-03-08T04:50:45;0.20;99.90
3792;DHT22;1911;53.768;11.474;2024-03-08T04:53:11;0.20;99.90
3792;DHT22;1911;53.768;11.474;2024-03-08T04:55:37;0.30;99.90
3792;DHT22;1911;53.768;11.474;2024-03-08T04:58:03;0.30;99.90
3792;DHT22;1911;53.768;11.474;2024-03-08T05:00:31;0.30;99.90
3792;DHT22;1911;53.768;11.474;2024-03-08T05:02:57;0.30;99.90
3792;DHT22;1911;53.768;11.474;2024-03-08T05:05:23;0.20;99.90
3792;DHT22;1911;53.768;11.474;2024-03-08T05:07:50;0.20;99.90
3792;DHT22;1911;53.768;11.474;2024-03-08T05:10:15;0.20;99.90
3792;DHT22;1911;53.768;11.474;2024-03-08T05:12:43;0.20;99.90
3792;DHT22;1911;53.768;11.474;2024-03-08T05:15:09;0.30;99.90
3792;DHT22;1911;53.768;11.474;2024-03-08T05:17:34;0.30;99.90
3792;DHT22;1911;53.768;11.474;2024-03-08T05:20:00;0.40;99.90
3792;DHT22;1911;53.768;11.474;2024-03-08T05:22:25;0.40;99.90
3792;DHT22;1911;53.768;11.474;2024-03-08T05:24:51;0.40;99.90
3792;DHT22;1911;53.768;11.474;2024-03-08T05:27:17;0.30;99.90
3792;DHT22;1911;53.768;11.474;2024-03-08T05:29:42;0.30;99.90
3792;DHT22;1911;53.768;11.474;2024-03-08T05:32:08;0.30;99.90
3792;DHT22;1911;53.768;11.474;2024-03-08T05:34:35;0.40;99.90
3792;DHT22;1911;53.768;11.474;2024-03-08T05:37:01;0.30;99.90
3792;DHT22;1911;53.768;11.474;2024-03-08T05:39:27;0.30;99.90
3792;DHT22;1911;53.768;11.474;2024-03-08T05:41:52;0.30;99.90
3792;DHT22;1911;53.768;11.474;2024-03-08T05:44:18;0.20;99.90
3792;DHT22;1911;53.768;11.474;2024-03-08T05:46:44;0.20;99.90
3792;DHT22;1911;53.768;11.474;2024-03-08T05:49:09;0.20;99.90
3792;DHT22;1911;53.768;11.474;2024-03-08T05:51:36;0.20;99.90
3792;DHT22;1911;53.768;11.474;2024-03-08T05:54:02;0.20;99.90
3792;DHT22;1911;53.768;11.474;2024-03-08T05:56:29;0.20;99.90
3792;DHT22;1911;53.768;11.474;2024-03-08T05:58:55;0.20;99.90
3792;DHT22;1911;53.768;11.474;2024-03-08T06:01:20;0.30;99.90
3792;DHT22;1911;53.768;11.474;2024-03-08T06:03:47;0.30;99.90
3792;DHT22;1911;53.768;11.474;2024-03-08T06:06:14;0.40;99.90
3792;DHT22;1911;53.768;11.474;2024-03-08T06:08:43;0.40;99.90
3792;DHT22;1911;53.768;11.474;2024-03-08T06:11:09;0.30;99.90
3792;DHT22;1911;53.768;11.474;2024-03-08T06:13:35;0.30;99.90
3792;DHT22;1911;53.768;11.474;2024-03-08T06:16:01;0.30;99.90
3792;DHT22;1911;53.768;11.474;2024-03-08T06:18:39;0.30;99.90
3792;DHT22;1911;53.768;11.474;2024-03-08T06:21:13;0.40;99.90
3792;DHT22;1911;53.768;11.474;2024-03-08T06:44:22;0.60;99.90
3792;DHT22;1911;53.768;11.474;2024-03-08T06:46:48;0.60;99.90
3792;DHT22;1911;53.768;11.474;2024-03-08T06:49:14;0.60;99.90
3792;DHT22;1911;53.768;11.474;2024-03-08T06:51:41;0.70;99.90
3792;DHT22;1911;53.768;11.474;2024-03-08T06:54:06;0.70;99.90
3792;DHT22;1911;53.768;11.474;2024-03-08T06:56:34;0.80;99.90
3792;DHT22;1911;53.768;11.474;2024-03-08T06:59:00;0.80;99.90
3792;DHT22;1911;53.768;11.474;2024-03-08T07:01:28;1.00;99.90
3792;DHT22;1911;53.768;11.474;2024-03-08T07:03:57;1.00;99.90
3792;DHT22;1911;53.768;11.474;2024-03-08T07:06:23;0.90;99.90
3792;DHT22;1911;53.768;11.474;2024-03-08T07:08:48;1.00;99.90
3792;DHT22;1911;53.768;11.474;2024-03-08T07:11:14;1.10;99.90
3792;DHT22;1911;53.768;11.474;2024-03-08T07:13:46;1.10;99.90
3792;DHT22;1911;53.768;11.474;2024-03-08T07:16:12;1.00;99.90
3792;DHT22;1911;53.768;11.474;2024-03-08T07:18:37;1.00;99.90
3792;DHT22;1911;53.768;11.474;2024-03-08T07:21:09;1.10;99.90
3792;DHT22;1911;53.768;11.474;2024-03-08T07:23:35;1.20;99.90
3792;DHT22;1911;53.768;11.474;2024-03-08T07:26:28;1.20;99.90
3792;DHT22;1911;53.768;11.474;2024-03-08T07:28:53;1.20;99.90
3792;DHT22;1911;53.768;11.474;2024-03-08T07:31:20;1.20;99.90
3792;DHT22;1911;53.768;11.474;2024-03-08T07:34:00;1.20;99.90
3792;DHT22;1911;53.768;11.474;2024-03-08T07:36:25;1.20;99.90
3792;DHT22;1911;53.768;11.474;2024-03-08T07:38:51;1.20;99.90
3792;DHT22;1911;53.768;11.474;2024-03-08T07:41:17;1.20;99.90
3792;DHT22;1911;53.768;11.474;2024-03-08T07:43:42;1.30;99.90
3792;DHT22;1911;53.768;11.474;2024-03-08T07:46:09;1.30;99.90
3792;DHT22;1911;53.768;11.474;2024-03-08T07:48:36;1.20;99.90
3792;DHT22;1911;53.768;11.474;2024-03-08T07:51:02;1.30;99.90
3792;DHT22;1911;53.768;11.474;2024-03-08T07:53:28;1.30;99.90
3792;DHT22;1911;53.768;11.474;2024-03-08T07:55:54;1.40;99.90
3792;DHT22;1911;53.768;11.474;2024-03-08T07:58:19;1.60;99.90
3792;DHT22;1911;53.768;11.474;2024-03-08T08:00:45;1.60;99.90
3792;DHT22;1911;53.768;11.474;2024-03-08T08:03:11;1.60;99.90
3792;DHT22;1911;53.768;11.474;2024-03-08T08:05:38;1.70;99.90
3792;DHT22;1911;53.768;11.474;2024-03-08T08:08:05;1.80;99.90
3792;DHT22;1911;53.768;11.474;2024-03-08T08:10:32;2.10;99.90
3792;DHT22;1911;53.768;11.474;2024-03-08T08:12:58;2.30;99.90
3792;DHT22;1911;53.768;11.474;2024-03-08T08:15:24;2.60;99.90
3792;DHT22;1911;53.768;11.474;2024-03-08T08:17:50;2.50;99.90
3792;DHT22;1911;53.768;11.474;2024-03-08T08:20:17;2.50;99.90
3792;DHT22;1911;53.768;11.474;2024-03-08T08:22:43;2.60;99.90
3792;DHT22;1911;53.768;11.474;2024-03-08T08:25:09;2.90;99.90
3792;DHT22;1911;53.768;11.474;2024-03-08T08:27:38;3.00;99.90
3792;DHT22;1911;53.768;11.474;2024-03-08T08:30:10;3.60;99.90
3792;DHT22;1911;53.768;11.474;2024-03-08T08:32:37;4.00;99.90
3792;DHT22;1911;53.768;11.474;2024-03-08T08:35:03;4.20;99.90
3792;DHT22;1911;53.768;11.474;2024-03-08T08:37:30;4.20;99.90
3792;DHT22;1911;53.768;11.474;2024-03-08T08:39:56;4.40;99.90
3792;DHT22;1911;53.768;11.474;2024-03-08T08:42:23;4.60;99.90
3792;DHT22;1911;53.768;11.474;2024-03-08T08:44:48;4.60;99.90
3792;DHT22;1911;53.768;11.474;2024-03-08T08:47:16;4.90;99.90
3792;DHT22;1911;53.768;11.474;2024-03-08T08:49:44;5.20;99.90
3792;DHT22;1911;53.768;11.474;2024-03-08T08:52:12;5.30;99.90
3792;DHT22;1911;53.768;11.474;2024-03-08T08:54:38;5.00;98.30
3792;DHT22;1911;53.768;11.474;2024-03-08T08:57:04;4.50;99.90
3792;DHT22;1911;53.768;11.474;2024-03-08T08:59:33;4.20;99.90
3792;DHT22;1911;53.768;11.474;2024-03-08T09:02:04;4.00;99.90
3792;DHT22;1911;53.768;11.474;2024-03-08T09:04:30;4.30;99.90
3792;DHT22;1911;53.768;11.474;2024-03-08T09:06:56;4.20;99.90
3792;DHT22;1911;53.768;11.474;2024-03-08T09:09:22;4.70;99.90
3792;DHT22;1911;53.768;11.474;2024-03-08T09:11:48;5.10;99.90
3792;DHT22;1911;53.768;11.474;2024-03-08T09:14:15;5.50;99.90
3792;DHT22;1911;53.768;11.474;2024-03-08T09:16:40;6.20;93.30
3792;DHT22;1911;53.768;11.474;2024-03-08T09:19:06;7.10;4.90
3792;DHT22;1911;53.768;11.474;2024-03-08T09:21:32;7.30;1.00
3792;DHT22;1911;53.768;11.474;2024-03-08T09:23:58;7.50;1.00
3792;DHT22;1911;53.768;11.474;2024-03-08T09:26:24;7.30;1.00
3792;DHT22;1911;53.768;11.474;2024-03-08T09:28:49;7.90;1.00
3792;DHT22;1911;53.768;11.474;2024-03-08T09:31:15;8.10;1.00
3792;DHT22;1911;53.768;11.474;2024-03-08T09:33:42;8.30;1.00
3792;DHT22;1911;53.768;11.474;2024-03-08T09:36:08;8.00;1.00
3792;DHT22;1911;53.768;11.474;2024-03-08T09:38:33;7.60;99.90
3792;DHT22;1911;53.768;11.474;2024-03-08T09:41:02;7.50;1.00
3792;DHT22;1911;53.768;11.474;2024-03-08T09:43:29;7.70;1.00
3792;DHT22;1911;53.768;11.474;2024-03-08T09:45:57;7.50;1.00
3792;DHT22;1911;53.768;11.474;2024-03-08T09:48:23;7.40;1.00
3792;DHT22;1911;53.768;11.474;2024-03-08T09:50:48;7.40;1.00
3792;DHT22;1911;53.768;11.474;2024-03-08T09:53:15;7.60;1.00
3792;DHT22;1911;53.768;11.474;2024-03-08T09:55:40;7.80;1.00
3792;DHT22;1911;53.768;11.474;2024-03-08T09:58:11;8.00;1.00
3792;DHT22;1911;53.768;11.474;2024-03-08T10:00:55;7.90;1.00
3792;DHT22;1911;53.768;11.474;2024-03-08T10:03:24;7.50;1.00
3792;DHT22;1911;53.768;11.474;2024-03-08T10:05:52;7.20;1.00
3792;DHT22;1911;53.768;11.474;2024-03-08T10:08:21;6.80;1.00
3792;DHT22;1911;53.768;11.474;2024-03-08T10:10:47;6.70;1.00
3792;DHT22;1911;53.768;11.474;2024-03-08T10:13:15;6.50;1.00
3792;DHT22;1911;53.768;11.474;2024-03-08T10:15:43;6.30;1.00
3792;DHT22;1911;53.768;11.474;2024-03-08T10:18:10;6.30;1.00
3792;DHT22;1911;53.768;11.474;2024-03-08T10:20:36;6.30;1.00
3792;DHT22;1911;53.768;11.474;2024-03-08T10:23:03;6.30;1.00
3792;DHT22;1911;53.768;11.474;2024-03-08T10:25:33;6.40;1.00
3792;DHT22;1911;53.768;11.474;2024-03-08T10:27:59;6.50;1.00
3792;DHT22;1911;53.768;11.474;2024-03-08T10:30:25;6.60;1.00
3792;DHT22;1911;53.768;11.474;2024-03-08T10:32:50;6.80;1.00
3792;DHT22;1911;53.768;11.474;2024-03-08T10:35:17;7.00;1.00
3792;DHT22;1911;53.768;11.474;2024-03-08T10:37:49;6.90;1.00
3792;DHT22;1911;53.768;11.474;2024-03-08T10:40:24;6.90;1.00
3792;DHT22;1911;53.768;11.474;2024-03-08T10:42:54;6.90;1.00
3792;DHT22;1911;53.768;11.474;2024-03-08T10:45:36;7.10;1.00
3792;DHT22;1911;53.768;11.474;2024-03-08T10:50:53;7.30;1.00
3792;DHT22;1911;53.768;11.474;2024-03-08T10:53:19;7.40;1.00
3792;DHT22;1911;53.768;11.474;2024-03-08T10:55:49;7.40;1.00
3792;DHT22;1911;53.768;11.474;2024-03-08T10:58:22;7.60;1.00
3792;DHT22;1911;53.768;11.474;2024-03-08T11:00:48;7.80;1.00
3792;DHT22;1911;53.768;11.474;2024-03-08T11:06:07;7.80;99.90
3792;DHT22;1911;53.768;11.474;2024-03-08T11:08:36;8.10;1.00
3792;DHT22;1911;53.768;11.474;2024-03-08T11:11:01;8.20;99.90
3792;DHT22;1911;53.768;11.474;2024-03-08T11:13:40;8.20;99.90
3792;DHT22;1911;53.768;11.474;2024-03-08T11:16:10;7.90;99.90
3792;DHT22;1911;53.768;11.474;2024-03-08T11:18:37;8.00;99.90
3792;DHT22;1911;53.768;11.474;2024-03-08T11:21:09;8.10;99.90
3792;DHT22;1911;53.768;11.474;2024-03-08T11:23:38;8.00;99.90
3792;DHT22;1911;53.768;11.474;2024-03-08T11:26:22;8.00;37.40
3792;DHT22;1911;53.768;11.474;2024-03-08T11:28:49;8.20;99.90
3792;DHT22;1911;53.768;11.474;2024-03-08T11:31:24;8.50;99.90
3792;DHT22;1911;53.768;11.474;2024-03-08T11:33:51;8.50;59.30
3792;DHT22;1911;53.768;11.474;2024-03-08T11:36:24;8.50;1.00
3792;DHT22;1911;53.768;11.474;2024-03-08T11:38:52;8.50;1.00
3792;DHT22;1911;53.768;11.474;2024-03-08T11:41:23;8.70;99.90
3792;DHT22;1911;53.768;11.474;2024-03-08T11:43:50;9.00;99.90
3792;DHT22;1911;53.768;11.474;2024-03-08T11:46:26;8.90;1.00
3792;DHT22;1911;53.768;11.474;2024-03-08T11:48:54;8.70;1.00
3792;DHT22;1911;53.768;11.474;2024-03-08T11:51:21;8.60;99.90
3792;DHT22;1911;53.768;11.474;2024-03-08T11:53:49;8.60;1.00
3792;DHT22;1911;53.768;11.474;2024-03-08T11:56:16;8.80;1.00
3792;DHT22;1911;53.768;11.474;2024-03-08T11:58:42;8.90;1.00
3792;DHT22;1911;53.768;11.474;2024-03-08T12:01:17;8.80;1.00
3792;DHT22;1911;53.768;11.474;2024-03-08T12:03:43;8.60;1.00
3792;DHT22;1911;53.768;11.474;2024-03-08T12:06:10;8.80;1.00
3792;DHT22;1911;53.768;11.474;2024-03-08T12:08:36;8.90;1.00
3792;DHT22;1911;53.768;11.474;2024-03-08T12:11:04;9.00;1.00
3792;DHT22;1911;53.768;11.474;2024-03-08T12:13:31;9.10;1.00
3792;DHT22;1911;53.768;11.474;2024-03-08T12:15:58;9.00;1.00
3792;DHT22;1911;53.768;11.474;2024-03-08T12:18:25;9.00;1.00
3792;DHT22;1911;53.768;11.474;2024-03-08T12:20:52;9.00;1.00
3792;DHT22;1911;53.768;11.474;2024-03-08T12:23:18;9.10;1.00
3792;DHT22;1911;53.768;11.474;2024-03-08T12:25:43;9.20;1.00
3792;DHT22;1911;53.768;11.474;2024-03-08T12:28:11;9.30;99.90
3792;DHT22;1911;53.768;11.474;2024-03-08T12:30:58;9.30;99.90
3792;DHT22;1911;53.768;11.474;2024-03-08T12:33:25;9.10;1.00
3792;DHT22;1911;53.768;11.474;2024-03-08T12:35:54;9.00;20.10
3792;DHT22;1911;53.768;11.474;2024-03-08T12:38:21;9.00;99.90
3792;DHT22;1911;53.768;11.474;2024-03-08T12:40:58;8.80;99.90
3792;DHT22;1911;53.768;11.474;2024-03-08T12:43:24;8.60;1.00
3792;DHT22;1911;53.768;11.474;2024-03-08T12:45:50;8.60;1.00
3792;DHT22;1911;53.768;11.474;2024-03-08T12:48:15;8.70;1.00
3792;DHT22;1911;53.768;11.474;2024-03-08T12:50:41;8.70;1.00
3792;DHT22;1911;53.768;11.474;2024-03-08T12:53:10;8.80;29.30
3792;DHT22;1911;53.768;11.474;2024-03-08T12:55:36;8.80;99.90
3792;DHT22;1911;53.768;11.474;2024-03-08T12:58:02;8.60;99.90
3792;DHT22;1911;53.768;11.474;2024-03-08T13:00:27;8.60;99.90
3792;DHT22;1911;53.768;11.474;2024-03-08T13:02:53;8.60;99.90
3792;DHT22;1911;53.768;11.474;2024-03-08T13:05:20;8.80;99.90
3792;DHT22;1911;53.768;11.474;2024-03-08T13:07:46;8.80;99.90
3792;DHT22;1911;53.768;11.474;2024-03-08T13:10:13;8.80;99.90
3792;DHT22;1911;53.768;11.474;2024-03-08T13:12:44;8.70;99.90
3792;DHT22;1911;53.768;11.474;2024-03-08T13:15:10;8.70;99.90
3792;DHT22;1911;53.768;11.474;2024-03-08T13:17:40;8.80;99.90
3792;DHT22;1911;53.768;11.474;2024-03-08T13:20:08;8.80;99.90
3792;DHT22;1911;53.768;11.474;2024-03-08T13:22:34;8.80;99.90
3792;DHT22;1911;53.768;11.474;2024-03-08T13:24:59;8.90;99.90
3792;DHT22;1911;53.768;11.474;2024-03-08T13:27:27;8.80;99.90
3792;DHT22;1911;53.768;11.474;2024-03-08T13:29:53;8.80;99.90
3792;DHT22;1911;53.768;11.474;2024-03-08T13:32:19;8.90;99.90
3792;DHT22;1911;53.768;11.474;2024-03-08T13:34:46;8.90;99.90
3792;DHT22;1911;53.768;11.474;2024-03-08T13:37:16;8.90;99.90
3792;DHT22;1911;53.768;11.474;2024-03-08T13:39:42;8.90;99.90
3792;DHT22;1911;53.768;11.474;2024-03-08T13:42:12;9.00;99.90
3792;DHT22;1911;53.768;11.474;2024-03-08T13:44:48;8.90;99.90
3792;DHT22;1911;53.768;11.474;2024-03-08T13:47:16;8.90;99.90
3792;DHT22;1911;53.768;11.474;2024-03-08T13:49:43;8.80;99.90
3792;DHT22;1911;53.768;11.474;2024-03-08T13:52:09;8.70;99.90
3792;DHT22;1911;53.768;11.474;2024-03-08T13:54:36;8.80;99.90
3792;DHT22;1911;53.768;11.474;2024-03-08T13:57:02;8.70;99.90
3792;DHT22;1911;53.768;11.474;2024-03-08T13:59:33;8.70;99.90
3792;DHT22;1911;53.768;11.474;2024-03-08T14:02:01;8.70;99.90
3792;DHT22;1911;53.768;11.474;2024-03-08T14:04:30;8.70;99.90
3792;DHT22;1911;53.768;11.474;2024-03-08T14:06:56;8.80;99.90
3792;DHT22;1911;53.768;11.474;2024-03-08T14:09:25;8.70;99.90
3792;DHT22;1911;53.768;11.474;2024-03-08T14:11:54;8.70;99.90
3792;DHT22;1911;53.768;11.474;2024-03-08T14:14:21;8.50;99.90
3792;DHT22;1911;53.768;11.474;2024-03-08T14:16:49;8.50;99.90
3792;DHT22;1911;53.768;11.474;2024-03-08T14:19:18;8.40;99.90
3792;DHT22;1911;53.768;11.474;2024-03-08T14:21:44;8.30;99.90
3792;DHT22;1911;53.768;11.474;2024-03-08T14:24:10;8.40;99.90
3792;DHT22;1911;53.768;11.474;2024-03-08T14:26:35;8.50;99.90
3792;DHT22;1911;53.768;11.474;2024-03-08T14:29:04;8.50;99.90
3792;DHT22;1911;53.768;11.474;2024-03-08T14:31:30;8.50;99.90
3792;DHT22;1911;53.768;11.474;2024-03-08T14:33:56;8.60;99.90
3792;DHT22;1911;53.768;11.474;2024-03-08T14:36:24;8.60;99.90
3792;DHT22;1911;53.768;11.474;2024-03-08T14:38:51;8.50;99.90
3792;DHT22;1911;53.768;11.474;2024-03-08T14:41:18;8.50;99.90
3792;DHT22;1911;53.768;11.474;2024-03-08T14:43:44;8.50;99.90
3792;DHT22;1911;53.768;11.474;2024-03-08T14:46:14;8.40;99.90
3792;DHT22;1911;53.768;11.474;2024-03-08T14:48:43;8.40;99.90
3792;DHT22;1911;53.768;11.474;2024-03-08T14:51:09;8.40;99.90
3792;DHT22;1911;53.768;11.474;2024-03-08T14:53:36;8.40;99.90
3792;DHT22;1911;53.768;11.474;2024-03-08T14:56:09;8.40;1.00
3792;DHT22;1911;53.768;11.474;2024-03-08T14:58:35;8.40;1.00
3792;DHT22;1911;53.768;11.474;2024-03-08T15:01:01;8.30;99.90
3792;DHT22;1911;53.768;11.474;2024-03-08T15:03:27;8.30;99.90
3792;DHT22;1911;53.768;11.474;2024-03-08T15:05:54;8.30;99.90
3792;DHT22;1911;53.768;11.474;2024-03-08T15:08:21;8.30;1.00
3792;DHT22;1911;53.768;11.474;2024-03-08T15:10:48;8.30;1.00
3792;DHT22;1911;53.768;11.474;2024-03-08T15:13:20;8.30;1.00
3792;DHT22;1911;53.768;11.474;2024-03-08T15:15:51;8.20;99.90
3792;DHT22;1911;53.768;11.474;2024-03-08T15:18:23;8.20;99.90
3792;DHT22;1911;53.768;11.474;2024-03-08T15:21:08;8.20;99.90
3792;DHT22;1911;53.768;11.474;2024-03-08T15:23:35;8.30;99.90
3792;DHT22;1911;53.768;11.474;2024-03-08T15:26:00;8.30;99.90
3792;DHT22;1911;53.768;11.474;2024-03-08T15:28:27;8.20;99.90
3792;DHT22;1911;53.768;11.474;2024-03-08T15:31:03;8.10;99.90
3792;DHT22;1911;53.768;11.474;2024-03-08T15:33:37;8.10;99.90
3792;DHT22;1911;53.768;11.474;2024-03-08T15:36:14;8.10;99.90
3792;DHT22;1911;53.768;11.474;2024-03-08T15:38:42;8.00;99.90
3792;DHT22;1911;53.768;11.474;2024-03-08T15:41:09;8.00;99.90
3792;DHT22;1911;53.768;11.474;2024-03-08T15:43:41;7.90;99.90
3792;DHT22;1911;53.768;11.474;2024-03-08T15:46:07;7.90;99.90
3792;DHT22;1911;53.768;11.474;2024-03-08T15:48:34;7.90;99.90
3792;DHT22;1911;53.768;11.474;2024-03-08T15:51:04;7.90;99.90
3792;DHT22;1911;53.768;11.474;2024-03-08T15:53:35;7.90;99.90
3792;DHT22;1911;53.768;11.474;2024-03-08T15:56:04;7.80;99.90
3792;DHT22;1911;53.768;11.474;2024-03-08T15:58:34;7.80;99.90
3792;DHT22;1911;53.768;11.474;2024-03-08T16:01:03;7.80;99.90
3792;DHT22;1911;53.768;11.474;2024-03-08T16:03:31;7.80;99.90
3792;DHT22;1911;53.768;11.474;2024-03-08T16:05:58;7.80;99.90
3792;DHT22;1911;53.768;11.474;2024-03-08T16:08:24;7.70;99.90
3792;DHT22;1911;53.768;11.474;2024-03-08T16:10:53;7.70;99.90
3792;DHT22;1911;53.768;11.474;2024-03-08T16:13:22;7.60;99.90
3792;DHT22;1911;53.768;11.474;2024-03-08T16:15:49;7.50;99.90
3792;DHT22;1911;53.768;11.474;2024-03-08T16:18:16;7.50;99.90
3792;DHT22;1911;53.768;11.474;2024-03-08T16:20:42;7.40;99.90
3792;DHT22;1911;53.768;11.474;2024-03-08T16:23:13;7.40;99.90
3792;DHT22;1911;53.768;11.474;2024-03-08T16:25:48;7.40;99.90
3792;DHT22;1911;53.768;11.474;2024-03-08T16:28:15;7.20;99.90
3792;DHT22;1911;53.768;11.474;2024-03-08T16:30:42;7.20;1.00
3792;DHT22;1911;53.768;11.474;2024-03-08T16:33:11;7.10;1.00
3792;DHT22;1911;53.768;11.474;2024-03-08T16:35:39;7.10;99.90
3792;DHT22;1911;53.768;11.474;2024-03-08T16:38:09;7.00;99.90